<?xml version="1.0" encoding="UTF-8" ?>
<gpx version="1.1" xmlns:xsi="http://www.w3.org/2001/XMLSchema-instance" 
    xmlns="http://www.topografix.com/GPX/1/1" 
    xsi:schemaLocation="http://www.topografix.com/GPX/1/1 http://www.topografix.com/GPX/1/1/gpx.xsd" 
    creator="Openrunner - https://www.openrunner.com" >	<trk>
						<name>la_ronde_du_bois_brűlé-18056376</name>
						<trkseg>
					<trkpt lat="47.313590" lon="4.606770">
						<ele>398</ele>
						<time>2023-12-11T09:38:24Z</time>
					</trkpt>
					<trkpt lat="47.314210" lon="4.606190">
						<ele>398</ele>
						<time>2023-12-11T09:39:01Z</time>
					</trkpt>
					<trkpt lat="47.314480" lon="4.605400">
						<ele>398</ele>
						<time>2023-12-11T09:39:31Z</time>
					</trkpt>
					<trkpt lat="47.312480" lon="4.600780">
						<ele>399</ele>
						<time>2023-12-11T09:42:37Z</time>
					</trkpt>
					<trkpt lat="47.311740" lon="4.601380">
						<ele>401</ele>
						<time>2023-12-11T09:43:19Z</time>
					</trkpt>
					<trkpt lat="47.311030" lon="4.601880">
						<ele>403</ele>
						<time>2023-12-11T09:43:58Z</time>
					</trkpt>
					<trkpt lat="47.310390" lon="4.602070">
						<ele>406</ele>
						<time>2023-12-11T09:44:31Z</time>
					</trkpt>
					<trkpt lat="47.313070" lon="4.608170">
						<ele>404</ele>
						<time>2023-12-11T09:48:38Z</time>
					</trkpt>
					<trkpt lat="47.314210" lon="4.606360">
						<ele>398</ele>
						<time>2023-12-11T09:50:01Z</time>
					</trkpt>
					<trkpt lat="47.314540" lon="4.605480">
						<ele>398</ele>
						<time>2023-12-11T09:50:36Z</time>
					</trkpt>
					<trkpt lat="47.312570" lon="4.600720">
						<ele>398</ele>
						<time>2023-12-11T09:53:45Z</time>
					</trkpt>
					<trkpt lat="47.313590" lon="4.600200">
						<ele>389</ele>
						<time>2023-12-11T09:54:39Z</time>
					</trkpt>
					<trkpt lat="47.315220" lon="4.598290">
						<ele>382</ele>
						<time>2023-12-11T09:56:23Z</time>
					</trkpt>
					<trkpt lat="47.315920" lon="4.596400">
						<ele>383</ele>
						<time>2023-12-11T09:57:36Z</time>
					</trkpt>
					<trkpt lat="47.316540" lon="4.595480">
						<ele>380</ele>
						<time>2023-12-11T09:58:20Z</time>
					</trkpt>
					<trkpt lat="47.316530" lon="4.594000">
						<ele>386</ele>
						<time>2023-12-11T09:59:10Z</time>
					</trkpt>
					<trkpt lat="47.316540" lon="4.593340">
						<ele>388</ele>
						<time>2023-12-11T09:59:33Z</time>
					</trkpt>
					<trkpt lat="47.315860" lon="4.592860">
						<ele>403</ele>
						<time>2023-12-11T10:00:10Z</time>
					</trkpt>
					<trkpt lat="47.315290" lon="4.592590">
						<ele>422</ele>
						<time>2023-12-11T10:00:40Z</time>
					</trkpt>
					<trkpt lat="47.314450" lon="4.592390">
						<ele>444</ele>
						<time>2023-12-11T10:01:23Z</time>
					</trkpt>
					<trkpt lat="47.313560" lon="4.592220">
						<ele>457</ele>
						<time>2023-12-11T10:02:08Z</time>
					</trkpt>
					<trkpt lat="47.312610" lon="4.591860">
						<ele>473</ele>
						<time>2023-12-11T10:02:57Z</time>
					</trkpt>
					<trkpt lat="47.312060" lon="4.591770">
						<ele>488</ele>
						<time>2023-12-11T10:03:25Z</time>
					</trkpt>
					<trkpt lat="47.311090" lon="4.590800">
						<ele>513</ele>
						<time>2023-12-11T10:04:23Z</time>
					</trkpt>
					<trkpt lat="47.310640" lon="4.590180">
						<ele>518</ele>
						<time>2023-12-11T10:04:54Z</time>
					</trkpt>
					<trkpt lat="47.310910" lon="4.587760">
						<ele>509</ele>
						<time>2023-12-11T10:06:17Z</time>
					</trkpt>
					<trkpt lat="47.309720" lon="4.588290">
						<ele>512</ele>
						<time>2023-12-11T10:07:20Z</time>
					</trkpt>
					<trkpt lat="47.309200" lon="4.588360">
						<ele>512</ele>
						<time>2023-12-11T10:07:46Z</time>
					</trkpt>
					<trkpt lat="47.308990" lon="4.588590">
						<ele>513</ele>
						<time>2023-12-11T10:07:59Z</time>
					</trkpt>
					<trkpt lat="47.308720" lon="4.588770">
						<ele>514</ele>
						<time>2023-12-11T10:08:14Z</time>
					</trkpt>
					<trkpt lat="47.308370" lon="4.588660">
						<ele>515</ele>
						<time>2023-12-11T10:08:31Z</time>
					</trkpt>
					<trkpt lat="47.307810" lon="4.588720">
						<ele>516</ele>
						<time>2023-12-11T10:09:00Z</time>
					</trkpt>
					<trkpt lat="47.306930" lon="4.588530">
						<ele>519</ele>
						<time>2023-12-11T10:09:44Z</time>
					</trkpt>
					<trkpt lat="47.306340" lon="4.588720">
						<ele>520</ele>
						<time>2023-12-11T10:10:14Z</time>
					</trkpt>
					<trkpt lat="47.305690" lon="4.589070">
						<ele>523</ele>
						<time>2023-12-11T10:10:49Z</time>
					</trkpt>
					<trkpt lat="47.304950" lon="4.589390">
						<ele>527</ele>
						<time>2023-12-11T10:11:28Z</time>
					</trkpt>
					<trkpt lat="47.304130" lon="4.589620">
						<ele>526</ele>
						<time>2023-12-11T10:12:09Z</time>
					</trkpt>
					<trkpt lat="47.303590" lon="4.589860">
						<ele>524</ele>
						<time>2023-12-11T10:12:37Z</time>
					</trkpt>
					<trkpt lat="47.302910" lon="4.590120">
						<ele>521</ele>
						<time>2023-12-11T10:13:13Z</time>
					</trkpt>
					<trkpt lat="47.302420" lon="4.590180">
						<ele>521</ele>
						<time>2023-12-11T10:13:37Z</time>
					</trkpt>
					<trkpt lat="47.301940" lon="4.590440">
						<ele>523</ele>
						<time>2023-12-11T10:14:03Z</time>
					</trkpt>
					<trkpt lat="47.301720" lon="4.590630">
						<ele>523</ele>
						<time>2023-12-11T10:14:16Z</time>
					</trkpt>
					<trkpt lat="47.301640" lon="4.589840">
						<ele>527</ele>
						<time>2023-12-11T10:14:43Z</time>
					</trkpt>
					<trkpt lat="47.301290" lon="4.589880">
						<ele>527</ele>
						<time>2023-12-11T10:15:00Z</time>
					</trkpt>
					<trkpt lat="47.299490" lon="4.590400">
						<ele>526</ele>
						<time>2023-12-11T10:16:32Z</time>
					</trkpt>
					<trkpt lat="47.298660" lon="4.590740">
						<ele>526</ele>
						<time>2023-12-11T10:17:15Z</time>
					</trkpt>
					<trkpt lat="47.297990" lon="4.590930">
						<ele>526</ele>
						<time>2023-12-11T10:17:49Z</time>
					</trkpt>
					<trkpt lat="47.297370" lon="4.591620">
						<ele>525</ele>
						<time>2023-12-11T10:18:28Z</time>
					</trkpt>
					<trkpt lat="47.297640" lon="4.590870">
						<ele>525</ele>
						<time>2023-12-11T10:18:57Z</time>
					</trkpt>
					<trkpt lat="47.297790" lon="4.590160">
						<ele>527</ele>
						<time>2023-12-11T10:19:22Z</time>
					</trkpt>
					<trkpt lat="47.298020" lon="4.588400">
						<ele>533</ele>
						<time>2023-12-11T10:20:23Z</time>
					</trkpt>
					<trkpt lat="47.298330" lon="4.587130">
						<ele>530</ele>
						<time>2023-12-11T10:21:09Z</time>
					</trkpt>
					<trkpt lat="47.298570" lon="4.586730">
						<ele>529</ele>
						<time>2023-12-11T10:21:27Z</time>
					</trkpt>
					<trkpt lat="47.299880" lon="4.586110">
						<ele>525</ele>
						<time>2023-12-11T10:22:36Z</time>
					</trkpt>
					<trkpt lat="47.300790" lon="4.585740">
						<ele>522</ele>
						<time>2023-12-11T10:23:23Z</time>
					</trkpt>
					<trkpt lat="47.301890" lon="4.585630">
						<ele>519</ele>
						<time>2023-12-11T10:24:18Z</time>
					</trkpt>
					<trkpt lat="47.302970" lon="4.585120">
						<ele>517</ele>
						<time>2023-12-11T10:25:15Z</time>
					</trkpt>
					<trkpt lat="47.303900" lon="4.583720">
						<ele>518</ele>
						<time>2023-12-11T10:26:22Z</time>
					</trkpt>
					<trkpt lat="47.304760" lon="4.582500">
						<ele>516</ele>
						<time>2023-12-11T10:27:21Z</time>
					</trkpt>
					<trkpt lat="47.304860" lon="4.582180">
						<ele>516</ele>
						<time>2023-12-11T10:27:33Z</time>
					</trkpt>
					<trkpt lat="47.305530" lon="4.581730">
						<ele>515</ele>
						<time>2023-12-11T10:28:10Z</time>
					</trkpt>
					<trkpt lat="47.306400" lon="4.581710">
						<ele>517</ele>
						<time>2023-12-11T10:28:54Z</time>
					</trkpt>
					<trkpt lat="47.306360" lon="4.580350">
						<ele>506</ele>
						<time>2023-12-11T10:29:40Z</time>
					</trkpt>
					<trkpt lat="47.306940" lon="4.579670">
						<ele>503</ele>
						<time>2023-12-11T10:30:17Z</time>
					</trkpt>
					<trkpt lat="47.307460" lon="4.581040">
						<ele>517</ele>
						<time>2023-12-11T10:31:10Z</time>
					</trkpt>
					<trkpt lat="47.308410" lon="4.578270">
						<ele>491</ele>
						<time>2023-12-11T10:32:55Z</time>
					</trkpt>
					<trkpt lat="47.309210" lon="4.577270">
						<ele>483</ele>
						<time>2023-12-11T10:33:48Z</time>
					</trkpt>
					<trkpt lat="47.309790" lon="4.576490">
						<ele>476</ele>
						<time>2023-12-11T10:34:27Z</time>
					</trkpt>
					<trkpt lat="47.311250" lon="4.575120">
						<ele>471</ele>
						<time>2023-12-11T10:35:54Z</time>
					</trkpt>
					<trkpt lat="47.311650" lon="4.574690">
						<ele>469</ele>
						<time>2023-12-11T10:36:19Z</time>
					</trkpt>
					<trkpt lat="47.312080" lon="4.574010">
						<ele>464</ele>
						<time>2023-12-11T10:36:50Z</time>
					</trkpt>
					<trkpt lat="47.312540" lon="4.573550">
						<ele>461</ele>
						<time>2023-12-11T10:37:18Z</time>
					</trkpt>
					<trkpt lat="47.313280" lon="4.573100">
						<ele>457</ele>
						<time>2023-12-11T10:37:58Z</time>
					</trkpt>
					<trkpt lat="47.313860" lon="4.573320">
						<ele>460</ele>
						<time>2023-12-11T10:38:28Z</time>
					</trkpt>
					<trkpt lat="47.314390" lon="4.573810">
						<ele>466</ele>
						<time>2023-12-11T10:38:59Z</time>
					</trkpt>
					<trkpt lat="47.314850" lon="4.574130">
						<ele>465</ele>
						<time>2023-12-11T10:39:25Z</time>
					</trkpt>
					<trkpt lat="47.315170" lon="4.574460">
						<ele>466</ele>
						<time>2023-12-11T10:39:44Z</time>
					</trkpt>
					<trkpt lat="47.315330" lon="4.574410">
						<ele>466</ele>
						<time>2023-12-11T10:39:52Z</time>
					</trkpt>
					<trkpt lat="47.316090" lon="4.577010">
						<ele>487</ele>
						<time>2023-12-11T10:41:28Z</time>
					</trkpt>
					<trkpt lat="47.316850" lon="4.576490">
						<ele>501</ele>
						<time>2023-12-11T10:42:10Z</time>
					</trkpt>
					<trkpt lat="47.317060" lon="4.575420">
						<ele>495</ele>
						<time>2023-12-11T10:42:48Z</time>
					</trkpt>
					<trkpt lat="47.317650" lon="4.575160">
						<ele>502</ele>
						<time>2023-12-11T10:43:19Z</time>
					</trkpt>
					<trkpt lat="47.317860" lon="4.575960">
						<ele>512</ele>
						<time>2023-12-11T10:43:48Z</time>
					</trkpt>
					<trkpt lat="47.318290" lon="4.575140">
						<ele>509</ele>
						<time>2023-12-11T10:44:23Z</time>
					</trkpt>
					<trkpt lat="47.318170" lon="4.573570">
						<ele>513</ele>
						<time>2023-12-11T10:45:17Z</time>
					</trkpt>
					<trkpt lat="47.318030" lon="4.572500">
						<ele>515</ele>
						<time>2023-12-11T10:45:54Z</time>
					</trkpt>
					<trkpt lat="47.317800" lon="4.571170">
						<ele>513</ele>
						<time>2023-12-11T10:46:40Z</time>
					</trkpt>
					<trkpt lat="47.317880" lon="4.569110">
						<ele>507</ele>
						<time>2023-12-11T10:47:50Z</time>
					</trkpt>
					<trkpt lat="47.319080" lon="4.567950">
						<ele>511</ele>
						<time>2023-12-11T10:49:02Z</time>
					</trkpt>
					<trkpt lat="47.320060" lon="4.567140">
						<ele>510</ele>
						<time>2023-12-11T10:49:58Z</time>
					</trkpt>
					<trkpt lat="47.321340" lon="4.567220">
						<ele>517</ele>
						<time>2023-12-11T10:51:03Z</time>
					</trkpt>
					<trkpt lat="47.322130" lon="4.567780">
						<ele>515</ele>
						<time>2023-12-11T10:51:46Z</time>
					</trkpt>
					<trkpt lat="47.321620" lon="4.568830">
						<ele>520</ele>
						<time>2023-12-11T10:52:30Z</time>
					</trkpt>
					<trkpt lat="47.321320" lon="4.568940">
						<ele>521</ele>
						<time>2023-12-11T10:52:46Z</time>
					</trkpt>
					<trkpt lat="47.320970" lon="4.569150">
						<ele>522</ele>
						<time>2023-12-11T10:53:05Z</time>
					</trkpt>
					<trkpt lat="47.320530" lon="4.569880">
						<ele>522</ele>
						<time>2023-12-11T10:53:38Z</time>
					</trkpt>
					<trkpt lat="47.319890" lon="4.571210">
						<ele>523</ele>
						<time>2023-12-11T10:54:33Z</time>
					</trkpt>
					<trkpt lat="47.318670" lon="4.574480">
						<ele>513</ele>
						<time>2023-12-11T10:56:40Z</time>
					</trkpt>
					<trkpt lat="47.318230" lon="4.575850">
						<ele>512</ele>
						<time>2023-12-11T10:57:31Z</time>
					</trkpt>
					<trkpt lat="47.317590" lon="4.576600">
						<ele>515</ele>
						<time>2023-12-11T10:58:12Z</time>
					</trkpt>
					<trkpt lat="47.316960" lon="4.578810">
						<ele>515</ele>
						<time>2023-12-11T10:59:33Z</time>
					</trkpt>
					<trkpt lat="47.316880" lon="4.579630">
						<ele>515</ele>
						<time>2023-12-11T11:00:01Z</time>
					</trkpt>
					<trkpt lat="47.316630" lon="4.580480">
						<ele>513</ele>
						<time>2023-12-11T11:00:33Z</time>
					</trkpt>
					<trkpt lat="47.316080" lon="4.581130">
						<ele>514</ele>
						<time>2023-12-11T11:01:08Z</time>
					</trkpt>
					<trkpt lat="47.315470" lon="4.581690">
						<ele>518</ele>
						<time>2023-12-11T11:01:44Z</time>
					</trkpt>
					<trkpt lat="47.314570" lon="4.582240">
						<ele>520</ele>
						<time>2023-12-11T11:02:33Z</time>
					</trkpt>
					<trkpt lat="47.313950" lon="4.582760">
						<ele>523</ele>
						<time>2023-12-11T11:03:09Z</time>
					</trkpt>
					<trkpt lat="47.312990" lon="4.583790">
						<ele>526</ele>
						<time>2023-12-11T11:04:08Z</time>
					</trkpt>
					<trkpt lat="47.312210" lon="4.584950">
						<ele>515</ele>
						<time>2023-12-11T11:05:03Z</time>
					</trkpt>
					<trkpt lat="47.311860" lon="4.586060">
						<ele>510</ele>
						<time>2023-12-11T11:05:45Z</time>
					</trkpt>
					<trkpt lat="47.310640" lon="4.588210">
						<ele>510</ele>
						<time>2023-12-11T11:07:20Z</time>
					</trkpt>
					<trkpt lat="47.309790" lon="4.588470">
						<ele>512</ele>
						<time>2023-12-11T11:08:04Z</time>
					</trkpt>
					<trkpt lat="47.309270" lon="4.588590">
						<ele>512</ele>
						<time>2023-12-11T11:08:30Z</time>
					</trkpt>
					<trkpt lat="47.308510" lon="4.589020">
						<ele>515</ele>
						<time>2023-12-11T11:09:11Z</time>
					</trkpt>
					<trkpt lat="47.307790" lon="4.588890">
						<ele>516</ele>
						<time>2023-12-11T11:09:47Z</time>
					</trkpt>
					<trkpt lat="47.307150" lon="4.588720">
						<ele>518</ele>
						<time>2023-12-11T11:10:19Z</time>
					</trkpt>
					<trkpt lat="47.306680" lon="4.588810">
						<ele>519</ele>
						<time>2023-12-11T11:10:43Z</time>
					</trkpt>
					<trkpt lat="47.305180" lon="4.589300">
						<ele>526</ele>
						<time>2023-12-11T11:12:00Z</time>
					</trkpt>
					<trkpt lat="47.304610" lon="4.589750">
						<ele>529</ele>
						<time>2023-12-11T11:12:32Z</time>
					</trkpt>
					<trkpt lat="47.304000" lon="4.589800">
						<ele>526</ele>
						<time>2023-12-11T11:13:03Z</time>
					</trkpt>
					<trkpt lat="47.302870" lon="4.590310">
						<ele>520</ele>
						<time>2023-12-11T11:14:02Z</time>
					</trkpt>
					<trkpt lat="47.301970" lon="4.590650">
						<ele>521</ele>
						<time>2023-12-11T11:14:49Z</time>
					</trkpt>
					<trkpt lat="47.301240" lon="4.590870">
						<ele>523</ele>
						<time>2023-12-11T11:15:26Z</time>
					</trkpt>
					<trkpt lat="47.299640" lon="4.592330">
						<ele>513</ele>
						<time>2023-12-11T11:17:00Z</time>
					</trkpt>
					<trkpt lat="47.300070" lon="4.592890">
						<ele>512</ele>
						<time>2023-12-11T11:17:29Z</time>
					</trkpt>
					<trkpt lat="47.300890" lon="4.593660">
						<ele>511</ele>
						<time>2023-12-11T11:18:17Z</time>
					</trkpt>
					<trkpt lat="47.301940" lon="4.594350">
						<ele>503</ele>
						<time>2023-12-11T11:19:15Z</time>
					</trkpt>
					<trkpt lat="47.302290" lon="4.595330">
						<ele>506</ele>
						<time>2023-12-11T11:19:53Z</time>
					</trkpt>
					<trkpt lat="47.302690" lon="4.596410">
						<ele>503</ele>
						<time>2023-12-11T11:20:34Z</time>
					</trkpt>
					<trkpt lat="47.302640" lon="4.597350">
						<ele>503</ele>
						<time>2023-12-11T11:21:06Z</time>
					</trkpt>
					<trkpt lat="47.302140" lon="4.598160">
						<ele>507</ele>
						<time>2023-12-11T11:21:43Z</time>
					</trkpt>
					<trkpt lat="47.301210" lon="4.598720">
						<ele>515</ele>
						<time>2023-12-11T11:22:34Z</time>
					</trkpt>
					<trkpt lat="47.299780" lon="4.599800">
						<ele>509</ele>
						<time>2023-12-11T11:23:54Z</time>
					</trkpt>
					<trkpt lat="47.299030" lon="4.600180">
						<ele>512</ele>
						<time>2023-12-11T11:24:34Z</time>
					</trkpt>
					<trkpt lat="47.298240" lon="4.600220">
						<ele>519</ele>
						<time>2023-12-11T11:25:13Z</time>
					</trkpt>
					<trkpt lat="47.296810" lon="4.603270">
						<ele>523</ele>
						<time>2023-12-11T11:27:19Z</time>
					</trkpt>
					<trkpt lat="47.296200" lon="4.604430">
						<ele>519</ele>
						<time>2023-12-11T11:28:09Z</time>
					</trkpt>
					<trkpt lat="47.295330" lon="4.605250">
						<ele>516</ele>
						<time>2023-12-11T11:29:01Z</time>
					</trkpt>
					<trkpt lat="47.294520" lon="4.605720">
						<ele>518</ele>
						<time>2023-12-11T11:29:44Z</time>
					</trkpt>
					<trkpt lat="47.294020" lon="4.606190">
						<ele>520</ele>
						<time>2023-12-11T11:30:14Z</time>
					</trkpt>
					<trkpt lat="47.293580" lon="4.607390">
						<ele>522</ele>
						<time>2023-12-11T11:31:00Z</time>
					</trkpt>
					<trkpt lat="47.293090" lon="4.608210">
						<ele>524</ele>
						<time>2023-12-11T11:31:37Z</time>
					</trkpt>
					<trkpt lat="47.292710" lon="4.608940">
						<ele>525</ele>
						<time>2023-12-11T11:32:09Z</time>
					</trkpt>
					<trkpt lat="47.292860" lon="4.609490">
						<ele>521</ele>
						<time>2023-12-11T11:32:29Z</time>
					</trkpt>
					<trkpt lat="47.292680" lon="4.609880">
						<ele>519</ele>
						<time>2023-12-11T11:32:45Z</time>
					</trkpt>
					<trkpt lat="47.294050" lon="4.610570">
						<ele>509</ele>
						<time>2023-12-11T11:33:57Z</time>
					</trkpt>
					<trkpt lat="47.295330" lon="4.610220">
						<ele>496</ele>
						<time>2023-12-11T11:35:02Z</time>
					</trkpt>
					<trkpt lat="47.295800" lon="4.609280">
						<ele>491</ele>
						<time>2023-12-11T11:35:42Z</time>
					</trkpt>
					<trkpt lat="47.298300" lon="4.610350">
						<ele>442</ele>
						<time>2023-12-11T11:37:52Z</time>
					</trkpt>
					<trkpt lat="47.299520" lon="4.610140">
						<ele>426</ele>
						<time>2023-12-11T11:38:54Z</time>
					</trkpt>
					<trkpt lat="47.300890" lon="4.610350">
						<ele>412</ele>
						<time>2023-12-11T11:40:03Z</time>
					</trkpt>
					<trkpt lat="47.301500" lon="4.611080">
						<ele>405</ele>
						<time>2023-12-11T11:40:42Z</time>
					</trkpt>
					<trkpt lat="47.302750" lon="4.611250">
						<ele>401</ele>
						<time>2023-12-11T11:41:45Z</time>
					</trkpt>
					<trkpt lat="47.302810" lon="4.610780">
						<ele>404</ele>
						<time>2023-12-11T11:42:01Z</time>
					</trkpt>
					<trkpt lat="47.302930" lon="4.610140">
						<ele>406</ele>
						<time>2023-12-11T11:42:23Z</time>
					</trkpt>
					<trkpt lat="47.304180" lon="4.609750">
						<ele>404</ele>
						<time>2023-12-11T11:43:27Z</time>
					</trkpt>
					<trkpt lat="47.305280" lon="4.608760">
						<ele>403</ele>
						<time>2023-12-11T11:44:32Z</time>
					</trkpt>
					<trkpt lat="47.305890" lon="4.607610">
						<ele>402</ele>
						<time>2023-12-11T11:45:21Z</time>
					</trkpt>
					<trkpt lat="47.306070" lon="4.606100">
						<ele>403</ele>
						<time>2023-12-11T11:46:13Z</time>
					</trkpt>
					<trkpt lat="47.305840" lon="4.604090">
						<ele>403</ele>
						<time>2023-12-11T11:47:23Z</time>
					</trkpt>
					<trkpt lat="47.305870" lon="4.603310">
						<ele>405</ele>
						<time>2023-12-11T11:47:49Z</time>
					</trkpt>
					<trkpt lat="47.307170" lon="4.603660">
						<ele>405</ele>
						<time>2023-12-11T11:48:55Z</time>
					</trkpt>
					<trkpt lat="47.308460" lon="4.603440">
						<ele>406</ele>
						<time>2023-12-11T11:50:00Z</time>
					</trkpt>
					<trkpt lat="47.309530" lon="4.602710">
						<ele>406</ele>
						<time>2023-12-11T11:50:59Z</time>
					</trkpt>
					<trkpt lat="47.310320" lon="4.602030">
						<ele>407</ele>
						<time>2023-12-11T11:51:45Z</time>
					</trkpt>
					<trkpt lat="47.312760" lon="4.607990">
						<ele>400</ele>
						<time>2023-12-11T11:55:41Z</time>
					</trkpt>
					<trkpt lat="47.313580" lon="4.606750">
						<ele>397</ele>
						<time>2023-12-11T11:56:40Z</time>
					</trkpt>
					</trkseg>
				</trk>
			</gpx>